sensor_id;sensor_type;location;lat;lon;timestamp;pressure;altitude;pressure_sealevel;temperature
44429;BMP180;30134;47.866;-4.222;2023-05-07T00:00:48;101172.00;;;22.80
44429;BMP180;30134;47.866;-4.222;2023-05-07T00:03:15;101177.00;;;22.80
44429;BMP180;30134;47.866;-4.222;2023-05-07T00:05:41;101184.00;;;22.80
44429;BMP180;30134;47.866;-4.222;2023-05-07T00:08:07;101191.00;;;22.80
44429;BMP180;30134;47.866;-4.222;2023-05-07T00:10:33;101192.00;;;22.80
44429;BMP180;30134;47.866;-4.222;2023-05-07T00:12:59;101184.00;;;22.80
44429;BMP180;30134;47.866;-4.222;2023-05-07T00:15:26;101185.00;;;22.80
44429;BMP180;30134;47.866;-4.222;2023-05-07T00:17:52;101193.00;;;22.80
44429;BMP180;30134;47.866;-4.222;2023-05-07T00:20:18;101190.00;;;22.80
44429;BMP180;30134;47.866;-4.222;2023-05-07T00:22:44;101192.00;;;22.80
44429;BMP180;30134;47.866;-4.222;2023-05-07T00:25:11;101199.00;;;22.80
44429;BMP180;30134;47.866;-4.222;2023-05-07T00:27:37;101195.00;;;22.80
44429;BMP180;30134;47.866;-4.222;2023-05-07T00:30:03;101196.00;;;22.80
44429;BMP180;30134;47.866;-4.222;2023-05-07T00:32:29;101192.00;;;22.80
44429;BMP180;30134;47.866;-4.222;2023-05-07T00:34:55;101197.00;;;22.80
44429;BMP180;30134;47.866;-4.222;2023-05-07T00:37:21;101201.00;;;22.80
44429;BMP180;30134;47.866;-4.222;2023-05-07T00:39:47;101198.00;;;22.80
44429;BMP180;30134;47.866;-4.222;2023-05-07T00:42:13;101205.00;;;22.80
44429;BMP180;30134;47.866;-4.222;2023-05-07T00:44:40;101192.00;;;22.80
44429;BMP180;30134;47.866;-4.222;2023-05-07T00:47:07;101196.00;;;22.80
44429;BMP180;30134;47.866;-4.222;2023-05-07T00:49:41;101197.00;;;22.80
44429;BMP180;30134;47.866;-4.222;2023-05-07T00:52:08;101198.00;;;22.70
44429;BMP180;30134;47.866;-4.222;2023-05-07T00:54:35;101195.00;;;22.80
44429;BMP180;30134;47.866;-4.222;2023-05-07T00:57:03;101199.00;;;22.70
44429;BMP180;30134;47.866;-4.222;2023-05-07T00:59:33;101196.00;;;22.80
44429;BMP180;30134;47.866;-4.222;2023-05-07T01:01:59;101198.00;;;22.80
44429;BMP180;30134;47.866;-4.222;2023-05-07T01:04:26;101196.00;;;22.80
44429;BMP180;30134;47.866;-4.222;2023-05-07T01:06:54;101193.00;;;22.80
44429;BMP180;30134;47.866;-4.222;2023-05-07T01:09:23;101187.00;;;22.80
44429;BMP180;30134;47.866;-4.222;2023-05-07T01:11:50;101197.00;;;22.80
44429;BMP180;30134;47.866;-4.222;2023-05-07T01:14:18;101197.00;;;22.80
44429;BMP180;30134;47.866;-4.222;2023-05-07T01:16:44;101199.00;;;22.80
44429;BMP180;30134;47.866;-4.222;2023-05-07T01:19:12;101198.00;;;22.80
44429;BMP180;30134;47.866;-4.222;2023-05-07T01:21:45;101194.00;;;22.80
44429;BMP180;30134;47.866;-4.222;2023-05-07T01:24:12;101197.00;;;22.80
44429;BMP180;30134;47.866;-4.222;2023-05-07T01:26:39;101190.00;;;22.80
44429;BMP180;30134;47.866;-4.222;2023-05-07T01:29:05;101198.00;;;22.80
44429;BMP180;30134;47.866;-4.222;2023-05-07T01:31:33;101194.00;;;22.70
44429;BMP180;30134;47.866;-4.222;2023-05-07T01:34:01;101201.00;;;22.70
44429;BMP180;30134;47.866;-4.222;2023-05-07T01:36:29;101200.00;;;22.80
44429;BMP180;30134;47.866;-4.222;2023-05-07T01:38:56;101202.00;;;22.80
44429;BMP180;30134;47.866;-4.222;2023-05-07T01:41:23;101199.00;;;22.80
44429;BMP180;30134;47.866;-4.222;2023-05-07T01:43:52;101199.00;;;22.80
44429;BMP180;30134;47.866;-4.222;2023-05-07T01:46:19;101208.00;;;22.80
44429;BMP180;30134;47.866;-4.222;2023-05-07T01:48:46;101209.00;;;22.80
44429;BMP180;30134;47.866;-4.222;2023-05-07T01:51:12;101216.00;;;22.80
44429;BMP180;30134;47.866;-4.222;2023-05-07T01:53:39;101213.00;;;22.80
44429;BMP180;30134;47.866;-4.222;2023-05-07T01:56:07;101220.00;;;22.80
44429;BMP180;30134;47.866;-4.222;2023-05-07T01:58:33;101214.00;;;22.70
44429;BMP180;30134;47.866;-4.222;2023-05-07T02:00:59;101216.00;;;22.80
44429;BMP180;30134;47.866;-4.222;2023-05-07T02:03:25;101212.00;;;22.80
44429;BMP180;30134;47.866;-4.222;2023-05-07T02:05:51;101222.00;;;22.80
44429;BMP180;30134;47.866;-4.222;2023-05-07T02:08:17;101217.00;;;22.80
44429;BMP180;30134;47.866;-4.222;2023-05-07T02:10:43;101224.00;;;22.80
44429;BMP180;30134;47.866;-4.222;2023-05-07T02:13:09;101218.00;;;22.70
44429;BMP180;30134;47.866;-4.222;2023-05-07T02:15:35;101216.00;;;22.80
44429;BMP180;30134;47.866;-4.222;2023-05-07T02:18:10;101221.00;;;22.80
44429;BMP180;30134;47.866;-4.222;2023-05-07T02:20:36;101218.00;;;22.80
44429;BMP180;30134;47.866;-4.222;2023-05-07T02:23:02;101223.00;;;22.80
44429;BMP180;30134;47.866;-4.222;2023-05-07T02:25:28;101222.00;;;22.80
44429;BMP180;30134;47.866;-4.222;2023-05-07T02:27:55;101226.00;;;22.80
44429;BMP180;30134;47.866;-4.222;2023-05-07T02:30:21;101220.00;;;22.80
44429;BMP180;30134;47.866;-4.222;2023-05-07T02:32:47;101216.00;;;22.80
44429;BMP180;30134;47.866;-4.222;2023-05-07T02:35:13;101215.00;;;22.80
44429;BMP180;30134;47.866;-4.222;2023-05-07T02:37:39;101217.00;;;22.80
44429;BMP180;30134;47.866;-4.222;2023-05-07T02:40:06;101223.00;;;22.80
44429;BMP180;30134;47.866;-4.222;2023-05-07T02:42:32;101226.00;;;22.80
44429;BMP180;30134;47.866;-4.222;2023-05-07T02:44:58;101231.00;;;22.80
44429;BMP180;30134;47.866;-4.222;2023-05-07T02:47:25;101240.00;;;22.80
44429;BMP180;30134;47.866;-4.222;2023-05-07T02:49:54;101240.00;;;22.80
44429;BMP180;30134;47.866;-4.222;2023-05-07T02:52:21;101238.00;;;22.80
44429;BMP180;30134;47.866;-4.222;2023-05-07T02:54:54;101239.00;;;22.80
44429;BMP180;30134;47.866;-4.222;2023-05-07T02:57:28;101234.00;;;22.80
44429;BMP180;30134;47.866;-4.222;2023-05-07T02:59:54;101234.00;;;22.80
44429;BMP180;30134;47.866;-4.222;2023-05-07T03:02:20;101238.00;;;22.80
44429;BMP180;30134;47.866;-4.222;2023-05-07T03:04:46;101238.00;;;22.80
44429;BMP180;30134;47.866;-4.222;2023-05-07T03:07:12;101237.00;;;22.80
44429;BMP180;30134;47.866;-4.222;2023-05-07T03:09:38;101234.00;;;22.80
44429;BMP180;30134;47.866;-4.222;2023-05-07T03:12:04;101238.00;;;22.80
44429;BMP180;30134;47.866;-4.222;2023-05-07T03:14:30;101236.00;;;22.80
44429;BMP180;30134;47.866;-4.222;2023-05-07T03:16:58;101239.00;;;22.80
44429;BMP180;30134;47.866;-4.222;2023-05-07T03:19:24;101233.00;;;22.70
44429;BMP180;30134;47.866;-4.222;2023-05-07T03:21:51;101226.00;;;22.80
44429;BMP180;30134;47.866;-4.222;2023-05-07T03:24:17;101231.00;;;22.80
44429;BMP180;30134;47.866;-4.222;2023-05-07T03:26:43;101229.00;;;22.80
44429;BMP180;30134;47.866;-4.222;2023-05-07T03:29:09;101229.00;;;22.80
44429;BMP180;30134;47.866;-4.222;2023-05-07T03:31:35;101235.00;;;22.80
44429;BMP180;30134;47.866;-4.222;2023-05-07T03:34:01;101238.00;;;22.80
44429;BMP180;30134;47.866;-4.222;2023-05-07T03:36:27;101244.00;;;22.80
44429;BMP180;30134;47.866;-4.222;2023-05-07T03:38:53;101241.00;;;22.80
44429;BMP180;30134;47.866;-4.222;2023-05-07T03:41:19;101245.00;;;22.80
44429;BMP180;30134;47.866;-4.222;2023-05-07T03:43:46;101246.00;;;22.80
44429;BMP180;30134;47.866;-4.222;2023-05-07T03:46:12;101244.00;;;22.80
44429;BMP180;30134;47.866;-4.222;2023-05-07T03:48:38;101241.00;;;22.80
44429;BMP180;30134;47.866;-4.222;2023-05-07T03:51:04;101244.00;;;22.80
44429;BMP180;30134;47.866;-4.222;2023-05-07T03:53:30;101245.00;;;22.80
44429;BMP180;30134;47.866;-4.222;2023-05-07T03:55:56;101247.00;;;22.80
44429;BMP180;30134;47.866;-4.222;2023-05-07T03:58:21;101247.00;;;22.80
44429;BMP180;30134;47.866;-4.222;2023-05-07T04:00:48;101251.00;;;22.80
44429;BMP180;30134;47.866;-4.222;2023-05-07T04:03:14;101246.00;;;22.70
44429;BMP180;30134;47.866;-4.222;2023-05-07T04:05:40;101248.00;;;22.80
44429;BMP180;30134;47.866;-4.222;2023-05-07T04:08:07;101253.00;;;22.80
44429;BMP180;30134;47.866;-4.222;2023-05-07T04:10:33;101260.00;;;22.80
44429;BMP180;30134;47.866;-4.222;2023-05-07T04:12:59;101273.00;;;22.80
44429;BMP180;30134;47.866;-4.222;2023-05-07T04:15:25;101277.00;;;22.80
44429;BMP180;30134;47.866;-4.222;2023-05-07T04:17:51;101276.00;;;22.70
44429;BMP180;30134;47.866;-4.222;2023-05-07T04:20:17;101275.00;;;22.80
44429;BMP180;30134;47.866;-4.222;2023-05-07T04:22:44;101274.00;;;22.80
44429;BMP180;30134;47.866;-4.222;2023-05-07T04:25:10;101277.00;;;22.80
44429;BMP180;30134;47.866;-4.222;2023-05-07T04:27:36;101282.00;;;22.80
44429;BMP180;30134;47.866;-4.222;2023-05-07T04:30:04;101279.00;;;22.80
44429;BMP180;30134;47.866;-4.222;2023-05-07T04:32:30;101280.00;;;22.70
44429;BMP180;30134;47.866;-4.222;2023-05-07T04:34:57;101283.00;;;22.70
44429;BMP180;30134;47.866;-4.222;2023-05-07T04:37:23;101289.00;;;22.70
44429;BMP180;30134;47.866;-4.222;2023-05-07T04:39:49;101287.00;;;22.70
44429;BMP180;30134;47.866;-4.222;2023-05-07T04:42:16;101284.00;;;22.80
44429;BMP180;30134;47.866;-4.222;2023-05-07T04:44:44;101291.00;;;22.80
44429;BMP180;30134;47.866;-4.222;2023-05-07T04:47:13;101287.00;;;22.80
44429;BMP180;30134;47.866;-4.222;2023-05-07T04:49:39;101291.00;;;22.70
44429;BMP180;30134;47.866;-4.222;2023-05-07T04:52:05;101285.00;;;22.70
44429;BMP180;30134;47.866;-4.222;2023-05-07T04:54:31;101294.00;;;22.70
44429;BMP180;30134;47.866;-4.222;2023-05-07T04:56:57;101289.00;;;22.70
44429;BMP180;30134;47.866;-4.222;2023-05-07T04:59:23;101302.00;;;22.70
44429;BMP180;30134;47.866;-4.222;2023-05-07T05:01:49;101304.00;;;22.70
44429;BMP180;30134;47.866;-4.222;2023-05-07T05:04:15;101309.00;;;22.70
44429;BMP180;30134;47.866;-4.222;2023-05-07T05:06:41;101315.00;;;22.80
44429;BMP180;30134;47.866;-4.222;2023-05-07T05:09:07;101319.00;;;22.70
44429;BMP180;30134;47.866;-4.222;2023-05-07T05:11:33;101321.00;;;22.70
44429;BMP180;30134;47.866;-4.222;2023-05-07T05:14:00;101325.00;;;22.70
44429;BMP180;30134;47.866;-4.222;2023-05-07T05:16:26;101324.00;;;22.70
44429;BMP180;30134;47.866;-4.222;2023-05-07T05:18:52;101329.00;;;22.70
44429;BMP180;30134;47.866;-4.222;2023-05-07T05:21:20;101331.00;;;22.70
44429;BMP180;30134;47.866;-4.222;2023-05-07T05:23:46;101342.00;;;22.70
44429;BMP180;30134;47.866;-4.222;2023-05-07T05:26:12;101349.00;;;22.70
44429;BMP180;30134;47.866;-4.222;2023-05-07T05:28:38;101348.00;;;22.70
44429;BMP180;30134;47.866;-4.222;2023-05-07T05:31:05;101350.00;;;22.70
44429;BMP180;30134;47.866;-4.222;2023-05-07T05:33:31;101359.00;;;22.70
44429;BMP180;30134;47.866;-4.222;2023-05-07T05:35:57;101365.00;;;22.70
44429;BMP180;30134;47.866;-4.222;2023-05-07T05:38:23;101370.00;;;22.70
44429;BMP180;30134;47.866;-4.222;2023-05-07T05:40:50;101376.00;;;22.70
44429;BMP180;30134;47.866;-4.222;2023-05-07T05:43:15;101373.00;;;22.70
44429;BMP180;30134;47.866;-4.222;2023-05-07T05:45:42;101374.00;;;22.70
44429;BMP180;30134;47.866;-4.222;2023-05-07T05:48:08;101375.00;;;22.70
44429;BMP180;30134;47.866;-4.222;2023-05-07T05:50:34;101371.00;;;22.70
44429;BMP180;30134;47.866;-4.222;2023-05-07T05:53:02;101383.00;;;22.70
44429;BMP180;30134;47.866;-4.222;2023-05-07T05:55:28;101386.00;;;22.70
44429;BMP180;30134;47.866;-4.222;2023-05-07T05:57:55;101382.00;;;22.70
44429;BMP180;30134;47.866;-4.222;2023-05-07T06:00:22;101382.00;;;22.70
44429;BMP180;30134;47.866;-4.222;2023-05-07T06:02:48;101385.00;;;22.70
44429;BMP180;30134;47.866;-4.222;2023-05-07T06:05:14;101395.00;;;22.70
44429;BMP180;30134;47.866;-4.222;2023-05-07T06:07:40;101395.00;;;22.70
44429;BMP180;30134;47.866;-4.222;2023-05-07T06:10:07;101395.00;;;22.70
44429;BMP180;30134;47.866;-4.222;2023-05-07T06:12:33;101395.00;;;22.70
44429;BMP180;30134;47.866;-4.222;2023-05-07T06:14:59;101394.00;;;22.70
44429;BMP180;30134;47.866;-4.222;2023-05-07T06:17:25;101397.00;;;22.70
44429;BMP180;30134;47.866;-4.222;2023-05-07T06:19:51;101396.00;;;22.70
44429;BMP180;30134;47.866;-4.222;2023-05-07T06:22:18;101396.00;;;22.70
44429;BMP180;30134;47.866;-4.222;2023-05-07T06:24:43;101395.00;;;22.70
44429;BMP180;30134;47.866;-4.222;2023-05-07T06:27:10;101390.00;;;22.70
44429;BMP180;30134;47.866;-4.222;2023-05-07T06:29:36;101388.00;;;22.70
44429;BMP180;30134;47.866;-4.222;2023-05-07T06:32:13;101397.00;;;22.70
44429;BMP180;30134;47.866;-4.222;2023-05-07T06:34:40;101395.00;;;22.70
44429;BMP180;30134;47.866;-4.222;2023-05-07T06:37:07;101395.00;;;22.70
44429;BMP180;30134;47.866;-4.222;2023-05-07T06:39:33;101401.00;;;22.70
44429;BMP180;30134;47.866;-4.222;2023-05-07T06:42:01;101396.00;;;22.70
44429;BMP180;30134;47.866;-4.222;2023-05-07T06:44:31;101396.00;;;22.70
44429;BMP180;30134;47.866;-4.222;2023-05-07T06:46:57;101386.00;;;22.70
44429;BMP180;30134;47.866;-4.222;2023-05-07T06:49:23;101393.00;;;22.70
44429;BMP180;30134;47.866;-4.222;2023-05-07T06:51:49;101406.00;;;22.70
44429;BMP180;30134;47.866;-4.222;2023-05-07T06:54:15;101410.00;;;22.70
44429;BMP180;30134;47.866;-4.222;2023-05-07T06:56:41;101405.00;;;22.70
44429;BMP180;30134;47.866;-4.222;2023-05-07T06:59:07;101406.00;;;22.70
44429;BMP180;30134;47.866;-4.222;2023-05-07T07:01:33;101410.00;;;22.80
44429;BMP180;30134;47.866;-4.222;2023-05-07T07:03:59;101410.00;;;22.70
44429;BMP180;30134;47.866;-4.222;2023-05-07T07:06:26;101399.00;;;22.70
44429;BMP180;30134;47.866;-4.222;2023-05-07T07:08:52;101408.00;;;22.70
44429;BMP180;30134;47.866;-4.222;2023-05-07T07:11:18;101413.00;;;22.80
44429;BMP180;30134;47.866;-4.222;2023-05-07T07:13:44;101415.00;;;22.70
44429;BMP180;30134;47.866;-4.222;2023-05-07T07:16:10;101416.00;;;22.80
44429;BMP180;30134;47.866;-4.222;2023-05-07T07:18:36;101416.00;;;22.80
44429;BMP180;30134;47.866;-4.222;2023-05-07T07:21:03;101427.00;;;22.80
44429;BMP180;30134;47.866;-4.222;2023-05-07T07:23:29;101435.00;;;22.80
44429;BMP180;30134;47.866;-4.222;2023-05-07T07:25:55;101419.00;;;22.80
44429;BMP180;30134;47.866;-4.222;2023-05-07T07:28:22;101426.00;;;22.70
44429;BMP180;30134;47.866;-4.222;2023-05-07T07:30:48;101439.00;;;22.80
44429;BMP180;30134;47.866;-4.222;2023-05-07T07:33:14;101440.00;;;22.80
44429;BMP180;30134;47.866;-4.222;2023-05-07T07:35:40;101447.00;;;22.80
44429;BMP180;30134;47.866;-4.222;2023-05-07T07:38:06;101446.00;;;22.80
44429;BMP180;30134;47.866;-4.222;2023-05-07T07:40:34;101447.00;;;22.80
44429;BMP180;30134;47.866;-4.222;2023-05-07T07:43:03;101449.00;;;22.80
44429;BMP180;30134;47.866;-4.222;2023-05-07T07:45:30;101462.00;;;22.80
44429;BMP180;30134;47.866;-4.222;2023-05-07T07:47:56;101467.00;;;22.80
44429;BMP180;30134;47.866;-4.222;2023-05-07T07:50:22;101471.00;;;22.80
44429;BMP180;30134;47.866;-4.222;2023-05-07T07:52:49;101465.00;;;22.80
44429;BMP180;30134;47.866;-4.222;2023-05-07T07:55:15;101465.00;;;22.80
44429;BMP180;30134;47.866;-4.222;2023-05-07T07:57:46;101477.00;;;22.80
44429;BMP180;30134;47.866;-4.222;2023-05-07T08:00:13;101484.00;;;22.80
44429;BMP180;30134;47.866;-4.222;2023-05-07T08:02:39;101481.00;;;22.80
44429;BMP180;30134;47.866;-4.222;2023-05-07T08:05:05;101483.00;;;22.80
44429;BMP180;30134;47.866;-4.222;2023-05-07T08:07:32;101489.00;;;22.80
44429;BMP180;30134;47.866;-4.222;2023-05-07T08:09:58;101493.00;;;22.90
44429;BMP180;30134;47.866;-4.222;2023-05-07T08:12:24;101491.00;;;22.90
44429;BMP180;30134;47.866;-4.222;2023-05-07T08:14:50;101498.00;;;22.90
44429;BMP180;30134;47.866;-4.222;2023-05-07T08:17:16;101492.00;;;22.90
44429;BMP180;30134;47.866;-4.222;2023-05-07T08:19:42;101493.00;;;22.90
44429;BMP180;30134;47.866;-4.222;2023-05-07T08:22:10;101493.00;;;22.90
44429;BMP180;30134;47.866;-4.222;2023-05-07T08:24:36;101494.00;;;22.90
44429;BMP180;30134;47.866;-4.222;2023-05-07T08:27:03;101494.00;;;22.90
44429;BMP180;30134;47.866;-4.222;2023-05-07T08:29:28;101489.00;;;22.90
44429;BMP180;30134;47.866;-4.222;2023-05-07T08:31:54;101493.00;;;22.90
44429;BMP180;30134;47.866;-4.222;2023-05-07T08:34:22;101494.00;;;22.90
44429;BMP180;30134;47.866;-4.222;2023-05-07T08:36:48;101505.00;;;22.90
44429;BMP180;30134;47.866;-4.222;2023-05-07T08:39:16;101508.00;;;22.90
44429;BMP180;30134;47.866;-4.222;2023-05-07T08:41:45;101506.00;;;22.90
44429;BMP180;30134;47.866;-4.222;2023-05-07T08:44:14;101505.00;;;22.90
44429;BMP180;30134;47.866;-4.222;2023-05-07T08:46:42;101510.00;;;22.90
44429;BMP180;30134;47.866;-4.222;2023-05-07T08:49:12;101510.00;;;22.90
44429;BMP180;30134;47.866;-4.222;2023-05-07T08:51:38;101513.00;;;22.90
44429;BMP180;30134;47.866;-4.222;2023-05-07T08:54:04;101512.00;;;22.90
44429;BMP180;30134;47.866;-4.222;2023-05-07T08:56:31;101514.00;;;22.90
44429;BMP180;30134;47.866;-4.222;2023-05-07T08:58:57;101516.00;;;22.90
44429;BMP180;30134;47.866;-4.222;2023-05-07T09:01:24;101523.00;;;22.90
44429;BMP180;30134;47.866;-4.222;2023-05-07T09:03:51;101515.00;;;22.90
44429;BMP180;30134;47.866;-4.222;2023-05-07T09:06:17;101524.00;;;22.90
44429;BMP180;30134;47.866;-4.222;2023-05-07T09:08:51;101523.00;;;23.00
44429;BMP180;30134;47.866;-4.222;2023-05-07T09:11:21;101524.00;;;23.00
44429;BMP180;30134;47.866;-4.222;2023-05-07T09:13:52;101529.00;;;23.00
44429;BMP180;30134;47.866;-4.222;2023-05-07T09:16:21;101528.00;;;22.90
44429;BMP180;30134;47.866;-4.222;2023-05-07T09:18:51;101529.00;;;23.00
44429;BMP180;30134;47.866;-4.222;2023-05-07T09:21:19;101532.00;;;22.90
44429;BMP180;30134;47.866;-4.222;2023-05-07T09:23:45;101532.00;;;22.90
44429;BMP180;30134;47.866;-4.222;2023-05-07T09:26:11;101534.00;;;23.00
44429;BMP180;30134;47.866;-4.222;2023-05-07T09:28:41;101547.00;;;22.90
44429;BMP180;30134;47.866;-4.222;2023-05-07T09:31:09;101546.00;;;23.00
44429;BMP180;30134;47.866;-4.222;2023-05-07T09:33:35;101540.00;;;23.00
44429;BMP180;30134;47.866;-4.222;2023-05-07T09:36:06;101549.00;;;22.90
44429;BMP180;30134;47.866;-4.222;2023-05-07T09:38:34;101551.00;;;22.90
44429;BMP180;30134;47.866;-4.222;2023-05-07T09:41:13;101556.00;;;22.90
44429;BMP180;30134;47.866;-4.222;2023-05-07T09:43:40;101558.00;;;22.90
44429;BMP180;30134;47.866;-4.222;2023-05-07T09:46:14;101560.00;;;22.90
44429;BMP180;30134;47.866;-4.222;2023-05-07T09:48:42;101568.00;;;22.90
44429;BMP180;30134;47.866;-4.222;2023-05-07T09:54:03;101579.00;;;22.90
44429;BMP180;30134;47.866;-4.222;2023-05-07T09:56:30;101585.00;;;22.90
44429;BMP180;30134;47.866;-4.222;2023-05-07T09:59:00;101589.00;;;22.90
44429;BMP180;30134;47.866;-4.222;2023-05-07T10:01:27;101589.00;;;22.90
44429;BMP180;30134;47.866;-4.222;2023-05-07T10:03:53;101586.00;;;22.90
44429;BMP180;30134;47.866;-4.222;2023-05-07T10:06:20;101594.00;;;22.90
44429;BMP180;30134;47.866;-4.222;2023-05-07T10:08:47;101593.00;;;22.90
44429;BMP180;30134;47.866;-4.222;2023-05-07T10:11:14;101598.00;;;22.80
44429;BMP180;30134;47.866;-4.222;2023-05-07T10:13:43;101597.00;;;22.90
44429;BMP180;30134;47.866;-4.222;2023-05-07T10:16:09;101586.00;;;22.90
44429;BMP180;30134;47.866;-4.222;2023-05-07T10:18:35;101581.00;;;22.90
44429;BMP180;30134;47.866;-4.222;2023-05-07T10:21:16;101593.00;;;22.90
44429;BMP180;30134;47.866;-4.222;2023-05-07T10:23:48;101593.00;;;22.90
44429;BMP180;30134;47.866;-4.222;2023-05-07T10:26:15;101593.00;;;22.90
44429;BMP180;30134;47.866;-4.222;2023-05-07T10:28:46;101605.00;;;22.90
44429;BMP180;30134;47.866;-4.222;2023-05-07T10:34:09;101612.00;;;22.90
44429;BMP180;30134;47.866;-4.222;2023-05-07T10:36:37;101607.00;;;22.90
44429;BMP180;30134;47.866;-4.222;2023-05-07T10:39:06;101608.00;;;22.90
44429;BMP180;30134;47.866;-4.222;2023-05-07T10:41:32;101614.00;;;22.90
44429;BMP180;30134;47.866;-4.222;2023-05-07T10:43:59;101618.00;;;22.90
44429;BMP180;30134;47.866;-4.222;2023-05-07T10:46:28;101613.00;;;22.90
44429;BMP180;30134;47.866;-4.222;2023-05-07T10:51:30;101624.00;;;23.30
44429;BMP180;30134;47.866;-4.222;2023-05-07T10:56:42;101620.00;;;23.40
44429;BMP180;30134;47.866;-4.222;2023-05-07T10:59:33;101616.00;;;23.50
44429;BMP180;30134;47.866;-4.222;2023-05-07T11:02:19;101633.00;;;23.50
44429;BMP180;30134;47.866;-4.222;2023-05-07T11:05:22;101643.00;;;23.70
44429;BMP180;30134;47.866;-4.222;2023-05-07T11:08:05;101653.00;;;23.60
44429;BMP180;30134;47.866;-4.222;2023-05-07T11:10:52;101658.00;;;23.70
44429;BMP180;30134;47.866;-4.222;2023-05-07T11:13:48;101661.00;;;23.70
44429;BMP180;30134;47.866;-4.222;2023-05-07T11:16:25;101666.00;;;23.60
44429;BMP180;30134;47.866;-4.222;2023-05-07T11:18:55;101671.00;;;23.70
44429;BMP180;30134;47.866;-4.222;2023-05-07T11:21:35;101669.00;;;23.70
44429;BMP180;30134;47.866;-4.222;2023-05-07T11:24:03;101668.00;;;23.70
44429;BMP180;30134;47.866;-4.222;2023-05-07T11:26:42;101661.00;;;23.80
44429;BMP180;30134;47.866;-4.222;2023-05-07T11:29:20;101662.00;;;23.80
44429;BMP180;30134;47.866;-4.222;2023-05-07T11:31:54;101659.00;;;23.90
44429;BMP180;30134;47.866;-4.222;2023-05-07T11:34:25;101664.00;;;23.90
44429;BMP180;30134;47.866;-4.222;2023-05-07T11:36:52;101669.00;;;23.90
44429;BMP180;30134;47.866;-4.222;2023-05-07T11:39:32;101668.00;;;23.90
44429;BMP180;30134;47.866;-4.222;2023-05-07T11:42:04;101664.00;;;23.90
44429;BMP180;30134;47.866;-4.222;2023-05-07T11:44:44;101662.00;;;24.00
44429;BMP180;30134;47.866;-4.222;2023-05-07T11:47:11;101660.00;;;24.00
44429;BMP180;30134;47.866;-4.222;2023-05-07T11:49:37;101668.00;;;24.00
44429;BMP180;30134;47.866;-4.222;2023-05-07T11:52:03;101675.00;;;24.00
44429;BMP180;30134;47.866;-4.222;2023-05-07T11:54:37;101674.00;;;24.10
44429;BMP180;30134;47.866;-4.222;2023-05-07T11:57:03;101661.00;;;24.00
44429;BMP180;30134;47.866;-4.222;2023-05-07T11:59:29;101669.00;;;24.10
44429;BMP180;30134;47.866;-4.222;2023-05-07T12:01:58;101658.00;;;24.20
44429;BMP180;30134;47.866;-4.222;2023-05-07T12:04:29;101668.00;;;24.20
44429;BMP180;30134;47.866;-4.222;2023-05-07T12:06:55;101675.00;;;24.20
44429;BMP180;30134;47.866;-4.222;2023-05-07T12:09:21;101671.00;;;24.30
44429;BMP180;30134;47.866;-4.222;2023-05-07T12:11:48;101678.00;;;24.30
44429;BMP180;30134;47.866;-4.222;2023-05-07T12:14:15;101677.00;;;24.30
44429;BMP180;30134;47.866;-4.222;2023-05-07T12:16:44;101677.00;;;24.30
44429;BMP180;30134;47.866;-4.222;2023-05-07T12:19:11;101678.00;;;24.30
44429;BMP180;30134;47.866;-4.222;2023-05-07T12:21:41;101681.00;;;24.30
44429;BMP180;30134;47.866;-4.222;2023-05-07T12:24:08;101690.00;;;24.30
44429;BMP180;30134;47.866;-4.222;2023-05-07T12:26:38;101684.00;;;24.40
44429;BMP180;30134;47.866;-4.222;2023-05-07T12:29:06;101698.00;;;24.40
44429;BMP180;30134;47.866;-4.222;2023-05-07T12:31:32;101696.00;;;24.40
44429;BMP180;30134;47.866;-4.222;2023-05-07T12:33:58;101699.00;;;24.40
44429;BMP180;30134;47.866;-4.222;2023-05-07T12:36:24;101701.00;;;24.40
44429;BMP180;30134;47.866;-4.222;2023-05-07T12:38:51;101705.00;;;24.40
44429;BMP180;30134;47.866;-4.222;2023-05-07T12:41:17;101699.00;;;24.40
44429;BMP180;30134;47.866;-4.222;2023-05-07T12:43:44;101709.00;;;24.50
44429;BMP180;30134;47.866;-4.222;2023-05-07T12:46:12;101707.00;;;24.50
44429;BMP180;30134;47.866;-4.222;2023-05-07T12:48:44;101712.00;;;24.50
44429;BMP180;30134;47.866;-4.222;2023-05-07T12:51:13;101719.00;;;24.50
44429;BMP180;30134;47.866;-4.222;2023-05-07T12:53:42;101720.00;;;24.50
44429;BMP180;30134;47.866;-4.222;2023-05-07T12:56:09;101727.00;;;24.50
44429;BMP180;30134;47.866;-4.222;2023-05-07T12:58:35;101732.00;;;24.50
44429;BMP180;30134;47.866;-4.222;2023-05-07T13:01:06;101732.00;;;24.50
44429;BMP180;30134;47.866;-4.222;2023-05-07T13:03:37;101733.00;;;24.60
44429;BMP180;30134;47.866;-4.222;2023-05-07T13:06:09;101731.00;;;24.60
44429;BMP180;30134;47.866;-4.222;2023-05-07T13:08:40;101735.00;;;24.60
44429;BMP180;30134;47.866;-4.222;2023-05-07T13:11:10;101729.00;;;24.60
44429;BMP180;30134;47.866;-4.222;2023-05-07T13:13:39;101719.00;;;24.60
44429;BMP180;30134;47.866;-4.222;2023-05-07T13:16:08;101732.00;;;24.60
44429;BMP180;30134;47.866;-4.222;2023-05-07T13:18:34;101732.00;;;24.60
44429;BMP180;30134;47.866;-4.222;2023-05-07T13:21:01;101735.00;;;24.60
44429;BMP180;30134;47.866;-4.222;2023-05-07T13:23:28;101735.00;;;24.60
44429;BMP180;30134;47.866;-4.222;2023-05-07T13:25:54;101740.00;;;24.60
44429;BMP180;30134;47.866;-4.222;2023-05-07T13:28:22;101741.00;;;24.60
44429;BMP180;30134;47.866;-4.222;2023-05-07T13:30:48;101746.00;;;24.70
44429;BMP180;30134;47.866;-4.222;2023-05-07T13:33:14;101743.00;;;24.60
44429;BMP180;30134;47.866;-4.222;2023-05-07T13:35:48;101758.00;;;24.70
44429;BMP180;30134;47.866;-4.222;2023-05-07T13:38:14;101757.00;;;24.70
44429;BMP180;30134;47.866;-4.222;2023-05-07T13:40:41;101760.00;;;24.70
44429;BMP180;30134;47.866;-4.222;2023-05-07T13:43:07;101760.00;;;24.80
44429;BMP180;30134;47.866;-4.222;2023-05-07T13:45:33;101755.00;;;24.80
44429;BMP180;30134;47.866;-4.222;2023-05-07T13:48:00;101750.00;;;24.70
44429;BMP180;30134;47.866;-4.222;2023-05-07T13:50:26;101751.00;;;24.70
44429;BMP180;30134;47.866;-4.222;2023-05-07T13:52:55;101750.00;;;24.70
44429;BMP180;30134;47.866;-4.222;2023-05-07T13:55:23;101751.00;;;24.80
44429;BMP180;30134;47.866;-4.222;2023-05-07T13:58:00;101759.00;;;24.80